PWSweather.com
Personal Weather Stations
Station Observations
KMAMEDFI2
Medfield, MA 02052

Medfield, MA 02052

Lat: 42.1900822, Lon: -71.3296889

Elevation: 138

Station Type: Rainwise WS MK-III

http://www.medfieldweather.com

High Low Average
Temperature 44.3°F6.8°F 22.1°F-5.5°F 33.8°F1.0°F
Dew Point 35.9°F2.2°F 20.4°F-6.4°F 28.3°F-2.1°F
Winds 4.8 mph E7.7 mph E Calm Calm 1.3 mph 2.1 mph
Wind Gusts 9.1 mph14.6 mph -- 2.4 mph3.9 mph
Humidity 95% 58% 81%
Pressure 30.54 in1034.20 in 30.39 in1029.10 in -
Precipitation 0.00 in0.00 in - -
Hour Temp Dew Point Humidity Winds Wind Gusts Pressure Precip Precip Rate Daily Precip Total
12:00 AM 27.4°F-2.6°C 25.9°F-3.4°C 94% 0.3 mph SW0.5 kmh SW -- 30.39 in1029.1 mb - 0.00 in0.0 mm 0.00 in0.0 mm
12:20 AM 27.1°F-2.7°C 25.6°F-3.6°C 94% Calm Calm -- 30.40 in1029.5 mb - 0.00 in0.0 mm 0.00 in0.0 mm
12:30 AM 27.1°F-2.7°C 25.6°F-3.6°C 94% Calm Calm -- 30.39 in1029.1 mb - 0.00 in0.0 mm 0.00 in0.0 mm
12:40 AM 27.0°F-2.8°C 25.5°F-3.6°C 94% Calm Calm -- 30.40 in1029.5 mb - 0.00 in0.0 mm 0.00 in0.0 mm
12:50 AM 27.7°F-2.4°C 26.2°F-3.2°C 94% 0.5 mph SW0.8 kmh SW 1.3 mph2.1 kmh 30.39 in1029.1 mb - 0.00 in0.0 mm 0.00 in0.0 mm
01:00 AM 27.3°F-2.6°C 25.8°F-3.4°C 94% Calm Calm -- 30.40 in1029.5 mb - 0.00 in0.0 mm 0.00 in0.0 mm
01:10 AM 26.8°F-2.9°C 25.3°F-3.7°C 94% Calm Calm -- 30.40 in1029.5 mb - 0.00 in0.0 mm 0.00 in0.0 mm
01:20 AM 26.4°F-3.1°C 24.9°F-3.9°C 94% Calm Calm -- 30.40 in1029.5 mb - 0.00 in0.0 mm 0.00 in0.0 mm
01:30 AM 25.5°F-3.6°C 24.0°F-4.4°C 94% 0.2 mph SW0.3 kmh SW 1.3 mph2.1 kmh 30.41 in1029.8 mb - 0.00 in0.0 mm 0.00 in0.0 mm
01:40 AM 25.4°F-3.7°C 23.9°F-4.5°C 94% Calm Calm -- 30.41 in1029.8 mb - 0.00 in0.0 mm 0.00 in0.0 mm
01:50 AM 24.9°F-3.9°C 23.1°F-4.9°C 93% Calm Calm -- 30.41 in1029.8 mb - 0.00 in0.0 mm 0.00 in0.0 mm
02:00 AM 24.6°F-4.1°C 22.9°F-5.1°C 93% Calm Calm -- 30.41 in1029.8 mb - 0.00 in0.0 mm 0.00 in0.0 mm
02:10 AM 24.9°F-3.9°C 23.2°F-4.9°C 93% Calm Calm -- 30.42 in1030.1 mb - 0.00 in0.0 mm 0.00 in0.0 mm
02:20 AM 24.9°F-3.9°C 23.2°F-4.9°C 93% Calm Calm -- 30.42 in1030.1 mb - 0.00 in0.0 mm 0.00 in0.0 mm
02:30 AM 24.4°F-4.2°C 22.7°F-5.2°C 93% Calm Calm -- 30.42 in1030.1 mb - 0.00 in0.0 mm 0.00 in0.0 mm
02:40 AM 23.8°F-4.6°C 22.1°F-5.5°C 93% Calm Calm -- 30.42 in1030.1 mb - 0.00 in0.0 mm 0.00 in0.0 mm
02:50 AM 23.6°F-4.7°C 21.8°F-5.7°C 93% Calm Calm -- 30.42 in1030.1 mb - 0.00 in0.0 mm 0.00 in0.0 mm
03:00 AM 23.4°F-4.8°C 21.7°F-5.7°C 93% Calm Calm -- 30.42 in1030.1 mb - 0.00 in0.0 mm 0.00 in0.0 mm
03:10 AM 23.4°F-4.8°C 21.7°F-5.7°C 93% Calm Calm -- 30.42 in1030.1 mb - 0.00 in0.0 mm 0.00 in0.0 mm
03:20 AM 23.2°F-4.9°C 21.5°F-5.8°C 93% Calm Calm -- 30.42 in1030.1 mb - 0.00 in0.0 mm 0.00 in0.0 mm
03:30 AM 23.8°F-4.6°C 22.1°F-5.5°C 93% Calm Calm -- 30.42 in1030.1 mb - 0.00 in0.0 mm 0.00 in0.0 mm
03:40 AM 23.9°F-4.5°C 22.1°F-5.5°C 93% Calm Calm -- 30.42 in1030.1 mb - 0.00 in0.0 mm 0.00 in0.0 mm
03:50 AM 23.7°F-4.6°C 22.0°F-5.6°C 93% Calm Calm 1.3 mph2.1 kmh 30.43 in1030.5 mb - 0.00 in0.0 mm 0.00 in0.0 mm
04:00 AM 24.0°F-4.4°C 22.3°F-5.4°C 93% Calm Calm -- 30.43 in1030.5 mb - 0.00 in0.0 mm 0.00 in0.0 mm
04:10 AM 24.1°F-4.4°C 22.4°F-5.3°C 93% Calm Calm -- 30.43 in1030.5 mb - 0.00 in0.0 mm 0.00 in0.0 mm
04:20 AM 24.4°F-4.2°C 22.7°F-5.2°C 93% 0.1 mph SW0.2 kmh SW -- 30.43 in1030.5 mb - 0.00 in0.0 mm 0.00 in0.0 mm
04:30 AM 24.7°F-4.1°C 22.9°F-5.1°C 93% Calm Calm 1.3 mph2.1 kmh 30.44 in1030.8 mb - 0.00 in0.0 mm 0.00 in0.0 mm
04:40 AM 24.5°F-4.2°C 22.7°F-5.2°C 93% Calm Calm -- 30.44 in1030.8 mb - 0.00 in0.0 mm 0.00 in0.0 mm
04:50 AM 23.9°F-4.5°C 22.2°F-5.4°C 93% Calm Calm -- 30.44 in1030.8 mb - 0.00 in0.0 mm 0.00 in0.0 mm
05:00 AM 23.5°F-4.7°C 21.8°F-5.7°C 93% Calm Calm -- 30.44 in1030.8 mb - 0.00 in0.0 mm 0.00 in0.0 mm
05:10 AM 22.9°F-5.1°C 21.2°F-6.0°C 93% Calm Calm -- 30.44 in1030.8 mb - 0.00 in0.0 mm 0.00 in0.0 mm
05:20 AM 23.2°F-4.9°C 21.5°F-5.8°C 93% Calm Calm 1.3 mph2.1 kmh 30.44 in1030.8 mb - 0.00 in0.0 mm 0.00 in0.0 mm
05:30 AM 23.4°F-4.8°C 21.7°F-5.7°C 93% Calm Calm -- 30.44 in1030.8 mb - 0.00 in0.0 mm 0.00 in0.0 mm
05:40 AM 23.4°F-4.8°C 21.6°F-5.8°C 93% 0.3 mph SW0.5 kmh SW 1.3 mph2.1 kmh 30.44 in1030.8 mb - 0.00 in0.0 mm 0.00 in0.0 mm
05:50 AM 23.5°F-4.7°C 21.8°F-5.7°C 93% Calm Calm -- 30.45 in1031.2 mb - 0.00 in0.0 mm 0.00 in0.0 mm
06:00 AM 23.2°F-4.9°C 21.5°F-5.8°C 93% Calm Calm -- 30.46 in1031.5 mb - 0.00 in0.0 mm 0.00 in0.0 mm
06:10 AM 22.8°F-5.1°C 21.1°F-6.1°C 93% Calm Calm -- 30.46 in1031.5 mb - 0.00 in0.0 mm 0.00 in0.0 mm
06:20 AM 22.4°F-5.3°C 20.7°F-6.3°C 93% Calm Calm -- 30.46 in1031.5 mb - 0.00 in0.0 mm 0.00 in0.0 mm
06:30 AM 22.1°F-5.5°C 20.4°F-6.4°C 93% Calm Calm 1.3 mph2.1 kmh 30.46 in1031.5 mb - 0.00 in0.0 mm 0.00 in0.0 mm
06:40 AM 22.8°F-5.1°C 21.0°F-6.1°C 93% Calm Calm -- 30.47 in1031.8 mb - 0.00 in0.0 mm 0.00 in0.0 mm
06:50 AM 22.8°F-5.1°C 21.1°F-6.1°C 93% Calm Calm -- 30.47 in1031.8 mb - 0.00 in0.0 mm 0.00 in0.0 mm
07:00 AM 22.7°F-5.2°C 20.9°F-6.2°C 93% Calm Calm -- 30.47 in1031.8 mb - 0.00 in0.0 mm 0.00 in0.0 mm
07:10 AM 23.1°F-4.9°C 21.4°F-5.9°C 93% 0.2 mph SW0.3 kmh SW -- 30.48 in1032.2 mb - 0.00 in0.0 mm 0.00 in0.0 mm
07:20 AM 23.6°F-4.7°C 21.9°F-5.6°C 93% Calm Calm -- 30.48 in1032.2 mb - 0.00 in0.0 mm 0.00 in0.0 mm
07:30 AM 24.0°F-4.4°C 22.3°F-5.4°C 93% Calm Calm 1.3 mph2.1 kmh 30.49 in1032.5 mb - 0.00 in0.0 mm 0.00 in0.0 mm
07:40 AM 24.9°F-3.9°C 23.1°F-4.9°C 93% 0.5 mph SW0.8 kmh SW 1.3 mph2.1 kmh 30.48 in1032.2 mb - 0.00 in0.0 mm 0.00 in0.0 mm
07:50 AM 25.5°F-3.6°C 24.0°F-4.4°C 94% Calm Calm -- 30.48 in1032.2 mb - 0.00 in0.0 mm 0.00 in0.0 mm
08:00 AM 26.4°F-3.1°C 24.9°F-3.9°C 94% 0.2 mph SW0.3 kmh SW 1.3 mph2.1 kmh 30.49 in1032.5 mb - 0.00 in0.0 mm 0.00 in0.0 mm
08:10 AM 27.4°F-2.6°C 25.9°F-3.4°C 94% Calm Calm -- 30.48 in1032.2 mb - 0.00 in0.0 mm 0.00 in0.0 mm
08:20 AM 28.3°F-2.1°C 26.8°F-2.9°C 94% 0.1 mph SW0.2 kmh SW 2.6 mph4.2 kmh 30.48 in1032.2 mb - 0.00 in0.0 mm 0.00 in0.0 mm
08:30 AM 29.2°F-1.6°C 27.7°F-2.4°C 94% 0.2 mph SW0.3 kmh SW 2.6 mph4.2 kmh 30.48 in1032.2 mb - 0.00 in0.0 mm 0.00 in0.0 mm
08:40 AM 30.4°F-0.9°C 28.9°F-1.7°C 94% 1.6 mph S2.6 kmh S 3.9 mph6.3 kmh 30.49 in1032.5 mb - 0.00 in0.0 mm 0.00 in0.0 mm
08:50 AM 31.5°F-0.3°C 30.2°F-1.0°C 95% 0.8 mph NE1.3 kmh NE 2.6 mph4.2 kmh 30.49 in1032.5 mb - 0.00 in0.0 mm 0.00 in0.0 mm
09:00 AM 32.3°F0.2°C 31.1°F-0.5°C 95% 2.5 mph N4.0 kmh N 5.2 mph8.4 kmh 30.50 in1032.8 mb - 0.00 in0.0 mm 0.00 in0.0 mm
09:10 AM 33.6°F0.9°C 31.5°F-0.3°C 92% 1.5 mph E2.4 kmh E 3.9 mph6.3 kmh 30.50 in1032.8 mb - 0.00 in0.0 mm 0.00 in0.0 mm
09:20 AM 34.5°F1.4°C 31.9°F-0.1°C 90% 1.6 mph N2.6 kmh N 7.8 mph12.6 kmh 30.50 in1032.8 mb - 0.00 in0.0 mm 0.00 in0.0 mm
09:30 AM 35.4°F1.9°C 32.7°F0.4°C 90% 0.9 mph NE1.4 kmh NE 2.6 mph4.2 kmh 30.51 in1033.2 mb - 0.00 in0.0 mm 0.00 in0.0 mm
09:40 AM 36.0°F2.2°C 34.7°F1.5°C 95% 1.5 mph NW2.4 kmh NW 2.6 mph4.2 kmh 30.53 in1033.9 mb - 0.00 in0.0 mm 0.00 in0.0 mm
09:50 AM 37.3°F2.9°C 33.8°F1.0°C 87% 0.6 mph E1.0 kmh E 5.2 mph8.4 kmh 30.53 in1033.9 mb - 0.00 in0.0 mm 0.00 in0.0 mm
10:00 AM 38.6°F3.7°C 35.9°F2.2°C 90% Calm Calm 1.3 mph2.1 kmh 30.53 in1033.9 mb - 0.00 in0.0 mm 0.00 in0.0 mm
10:10 AM 39.9°F4.4°C 31.3°F-0.4°C 71% 4.6 mph ESE7.4 kmh ESE 5.2 mph8.4 kmh 30.54 in1034.2 mb - 0.00 in0.0 mm 0.00 in0.0 mm
10:20 AM 40.2°F4.6°C 31.2°F-0.4°C 70% 1.9 mph SSE3.1 kmh SSE 5.2 mph8.4 kmh 30.54 in1034.2 mb - 0.00 in0.0 mm 0.00 in0.0 mm
10:30 AM 40.3°F4.6°C 30.2°F-1.0°C 67% 2.8 mph E4.5 kmh E 5.2 mph8.4 kmh 30.53 in1033.9 mb - 0.00 in0.0 mm 0.00 in0.0 mm
10:40 AM 40.6°F4.8°C 29.0°F-1.7°C 63% 3.8 mph E6.1 kmh E 5.2 mph8.4 kmh 30.54 in1034.2 mb - 0.00 in0.0 mm 0.00 in0.0 mm
10:50 AM 41.2°F5.1°C 29.2°F-1.6°C 62% 3.2 mph ESE5.1 kmh ESE 5.2 mph8.4 kmh 30.53 in1033.9 mb - 0.00 in0.0 mm 0.00 in0.0 mm
11:00 AM 42.2°F5.7°C 29.3°F-1.5°C 60% 3.4 mph SE5.5 kmh SE 3.9 mph6.3 kmh 30.53 in1033.9 mb - 0.00 in0.0 mm 0.00 in0.0 mm
11:10 AM 43.2°F6.2°C 29.8°F-1.2°C 59% 2.8 mph ENE4.5 kmh ENE 9.1 mph14.6 kmh 30.54 in1034.2 mb - 0.00 in0.0 mm 0.00 in0.0 mm
11:20 AM 44.1°F6.7°C 31.1°F-0.5°C 60% 2.6 mph E4.2 kmh E 3.9 mph6.3 kmh 30.54 in1034.2 mb - 0.00 in0.0 mm 0.00 in0.0 mm
11:30 AM 43.9°F6.6°C 30.1°F-1.1°C 58% 3.4 mph E5.5 kmh E 5.2 mph8.4 kmh 30.54 in1034.2 mb - 0.00 in0.0 mm 0.00 in0.0 mm
11:40 AM 43.4°F6.3°C 30.4°F-0.9°C 60% 2.7 mph ENE4.3 kmh ENE 5.2 mph8.4 kmh 30.54 in1034.2 mb - 0.00 in0.0 mm 0.00 in0.0 mm
11:50 AM 43.4°F6.3°C 30.0°F-1.1°C 59% 4.1 mph E6.6 kmh E 5.2 mph8.4 kmh 30.53 in1033.9 mb - 0.00 in0.0 mm 0.00 in0.0 mm
12:00 PM 43.8°F6.6°C 30.8°F-0.7°C 60% 2.1 mph E3.4 kmh E 3.9 mph6.3 kmh 30.54 in1034.2 mb - 0.00 in0.0 mm 0.00 in0.0 mm
12:10 PM 43.9°F6.6°C 30.9°F-0.6°C 60% 2.2 mph E3.5 kmh E 5.2 mph8.4 kmh 30.54 in1034.2 mb - 0.00 in0.0 mm 0.00 in0.0 mm
12:20 PM 44.3°F6.8°C 31.2°F-0.4°C 60% 3.6 mph ESE5.8 kmh ESE 9.1 mph14.6 kmh 30.53 in1033.9 mb - 0.00 in0.0 mm 0.00 in0.0 mm
12:30 PM 44.2°F6.8°C 30.8°F-0.7°C 59% 3.1 mph ESE5.0 kmh ESE 7.8 mph12.6 kmh 30.54 in1034.2 mb - 0.00 in0.0 mm 0.00 in0.0 mm
12:40 PM 43.8°F6.6°C 31.2°F-0.4°C 61% 1.1 mph E1.8 kmh E 5.2 mph8.4 kmh 30.53 in1033.9 mb - 0.00 in0.0 mm 0.00 in0.0 mm
12:50 PM 43.1°F6.2°C 30.9°F-0.6°C 62% 4.0 mph ESE6.4 kmh ESE 3.9 mph6.3 kmh 30.53 in1033.9 mb - 0.00 in0.0 mm 0.00 in0.0 mm
01:00 PM 42.5°F5.8°C 30.0°F-1.1°C 61% 3.8 mph NW6.1 kmh NW 5.2 mph8.4 kmh 30.53 in1033.9 mb - 0.00 in0.0 mm 0.00 in0.0 mm
01:10 PM 41.9°F5.5°C 30.6°F-0.8°C 64% 2.5 mph E4.0 kmh E 9.1 mph14.6 kmh 30.53 in1033.9 mb - 0.00 in0.0 mm 0.00 in0.0 mm
01:20 PM 41.9°F5.5°C 30.2°F-1.0°C 63% 1.7 mph N2.7 kmh N 7.8 mph12.6 kmh 30.53 in1033.9 mb - 0.00 in0.0 mm 0.00 in0.0 mm
01:30 PM 41.5°F5.3°C 29.9°F-1.2°C 63% 1.8 mph ENE2.9 kmh ENE 5.2 mph8.4 kmh 30.53 in1033.9 mb - 0.00 in0.0 mm 0.00 in0.0 mm
01:40 PM 41.2°F5.1°C 29.9°F-1.2°C 64% 2.1 mph N3.4 kmh N 2.6 mph4.2 kmh 30.52 in1033.5 mb - 0.00 in0.0 mm 0.00 in0.0 mm
01:50 PM 41.2°F5.1°C 30.3°F-0.9°C 65% 0.2 mph ENE0.3 kmh ENE 2.6 mph4.2 kmh 30.52 in1033.5 mb - 0.00 in0.0 mm 0.00 in0.0 mm
02:00 PM 41.2°F5.1°C 29.9°F-1.2°C 64% 0.9 mph N1.4 kmh N 2.6 mph4.2 kmh 30.51 in1033.2 mb - 0.00 in0.0 mm 0.00 in0.0 mm
02:10 PM 41.2°F5.1°C 30.3°F-0.9°C 65% 1.7 mph S2.7 kmh S 2.6 mph4.2 kmh 30.51 in1033.2 mb - 0.00 in0.0 mm 0.00 in0.0 mm
02:20 PM 41.0°F5.0°C 30.2°F-1.0°C 65% 1.5 mph SE2.4 kmh SE 3.9 mph6.3 kmh 30.51 in1033.2 mb - 0.00 in0.0 mm 0.00 in0.0 mm
02:30 PM 40.5°F4.7°C 31.2°F-0.4°C 69% 0.6 mph SE1.0 kmh SE 2.6 mph4.2 kmh 30.52 in1033.5 mb - 0.00 in0.0 mm 0.00 in0.0 mm
02:40 PM 39.6°F4.2°C 31.7°F-0.2°C 73% 0.1 mph ENE0.2 kmh ENE 1.3 mph2.1 kmh 30.52 in1033.5 mb - 0.00 in0.0 mm 0.00 in0.0 mm
02:50 PM 39.7°F4.3°C 31.8°F-0.1°C 73% 1.9 mph ENE3.1 kmh ENE 2.6 mph4.2 kmh 30.51 in1033.2 mb - 0.00 in0.0 mm 0.00 in0.0 mm
03:00 PM 39.8°F4.3°C 31.2°F-0.4°C 71% 3.8 mph E6.1 kmh E 5.2 mph8.4 kmh 30.51 in1033.2 mb - 0.00 in0.0 mm 0.00 in0.0 mm
03:10 PM 39.9°F4.4°C 31.9°F-0.1°C 73% 1.2 mph ESE1.9 kmh ESE 5.2 mph8.4 kmh 30.50 in1032.8 mb - 0.00 in0.0 mm 0.00 in0.0 mm
03:20 PM 40.3°F4.6°C 31.6°F-0.2°C 71% 3.4 mph E5.5 kmh E 3.9 mph6.3 kmh 30.50 in1032.8 mb - 0.00 in0.0 mm 0.00 in0.0 mm
03:30 PM 40.2°F4.6°C 30.5°F-0.8°C 68% 3.3 mph ESE5.3 kmh ESE 6.5 mph10.5 kmh 30.50 in1032.8 mb - 0.00 in0.0 mm 0.00 in0.0 mm
03:40 PM 40.1°F4.5°C 30.4°F-0.9°C 68% 4.8 mph E7.7 kmh E 7.8 mph12.6 kmh 30.49 in1032.5 mb - 0.00 in0.0 mm 0.00 in0.0 mm
03:50 PM 39.9°F4.4°C 30.2°F-1.0°C 68% 4.0 mph E6.4 kmh E 3.9 mph6.3 kmh 30.49 in1032.5 mb - 0.00 in0.0 mm 0.00 in0.0 mm
04:00 PM 39.9°F4.4°C 30.5°F-0.8°C 69% 2.9 mph E4.7 kmh E 3.9 mph6.3 kmh 30.49 in1032.5 mb - 0.00 in0.0 mm 0.00 in0.0 mm
04:10 PM 40.2°F4.6°C 30.4°F-0.9°C 68% 0.7 mph NE1.1 kmh NE 2.6 mph4.2 kmh 30.49 in1032.5 mb - 0.00 in0.0 mm 0.00 in0.0 mm
04:20 PM 39.9°F4.4°C 30.2°F-1.0°C 68% 3.6 mph SE5.8 kmh SE 5.2 mph8.4 kmh 30.49 in1032.5 mb - 0.00 in0.0 mm 0.00 in0.0 mm
04:30 PM 40.0°F4.4°C 30.6°F-0.8°C 69% 2.9 mph S4.7 kmh S 5.2 mph8.4 kmh 30.49 in1032.5 mb - 0.00 in0.0 mm 0.00 in0.0 mm
04:40 PM 40.1°F4.5°C 31.1°F-0.5°C 70% 2.5 mph SE4.0 kmh SE 2.6 mph4.2 kmh 30.49 in1032.5 mb - 0.00 in0.0 mm 0.00 in0.0 mm
04:50 PM 40.1°F4.5°C 31.4°F-0.3°C 71% 1.9 mph SE3.1 kmh SE 2.6 mph4.2 kmh 30.49 in1032.5 mb - 0.00 in0.0 mm 0.00 in0.0 mm
05:00 PM 39.9°F4.4°C 31.3°F-0.4°C 71% 2.8 mph SE4.5 kmh SE 2.6 mph4.2 kmh 30.48 in1032.2 mb - 0.00 in0.0 mm 0.00 in0.0 mm
05:10 PM 39.8°F4.3°C 31.5°F-0.3°C 72% 1.5 mph SE2.4 kmh SE 2.6 mph4.2 kmh 30.48 in1032.2 mb - 0.00 in0.0 mm 0.00 in0.0 mm
05:20 PM 39.4°F4.1°C 31.5°F-0.3°C 73% 2.2 mph E3.5 kmh E 2.6 mph4.2 kmh 30.47 in1031.8 mb - 0.00 in0.0 mm 0.00 in0.0 mm
05:30 PM 39.1°F3.9°C 30.9°F-0.6°C 72% 3.6 mph E5.8 kmh E 5.2 mph8.4 kmh 30.47 in1031.8 mb - 0.00 in0.0 mm 0.00 in0.0 mm
05:40 PM 38.8°F3.8°C 30.9°F-0.6°C 73% 2.8 mph E4.5 kmh E 5.2 mph8.4 kmh 30.47 in1031.8 mb - 0.00 in0.0 mm 0.00 in0.0 mm
05:50 PM 38.6°F3.7°C 31.0°F-0.6°C 74% 2.4 mph ESE3.9 kmh ESE 2.6 mph4.2 kmh 30.47 in1031.8 mb - 0.00 in0.0 mm 0.00 in0.0 mm
06:00 PM 38.5°F3.6°C 31.3°F-0.4°C 75% 0.9 mph E1.4 kmh E 2.6 mph4.2 kmh 30.47 in1031.8 mb - 0.00 in0.0 mm 0.00 in0.0 mm
06:10 PM 38.4°F3.6°C 31.2°F-0.4°C 75% 2.1 mph ESE3.4 kmh ESE 2.6 mph4.2 kmh 30.47 in1031.8 mb - 0.00 in0.0 mm 0.00 in0.0 mm
06:20 PM 38.2°F3.4°C 31.3°F-0.4°C 76% 2.3 mph E3.7 kmh E 2.6 mph4.2 kmh 30.46 in1031.5 mb - 0.00 in0.0 mm 0.00 in0.0 mm
06:30 PM 38.0°F3.3°C 31.1°F-0.5°C 76% 3.2 mph ENE5.1 kmh ENE 3.9 mph6.3 kmh 30.45 in1031.2 mb - 0.00 in0.0 mm 0.00 in0.0 mm
06:40 PM 37.9°F3.3°C 31.1°F-0.5°C 76% 1.5 mph E2.4 kmh E 2.6 mph4.2 kmh 30.46 in1031.5 mb - 0.00 in0.0 mm 0.00 in0.0 mm
06:50 PM 37.9°F3.3°C 31.0°F-0.6°C 76% 2.1 mph SE3.4 kmh SE 2.6 mph4.2 kmh 30.46 in1031.5 mb - 0.00 in0.0 mm 0.00 in0.0 mm
07:00 PM 37.8°F3.2°C 30.9°F-0.6°C 76% 2.6 mph ESE4.2 kmh ESE 2.6 mph4.2 kmh 30.45 in1031.2 mb - 0.00 in0.0 mm 0.00 in0.0 mm
07:10 PM 37.7°F3.2°C 30.8°F-0.7°C 76% 2.9 mph E4.7 kmh E 2.6 mph4.2 kmh 30.45 in1031.2 mb - 0.00 in0.0 mm 0.00 in0.0 mm
07:20 PM 37.5°F3.1°C 30.9°F-0.6°C 77% 1.4 mph E2.3 kmh E 2.6 mph4.2 kmh 30.45 in1031.2 mb - 0.00 in0.0 mm 0.00 in0.0 mm
07:30 PM 37.5°F3.1°C 30.9°F-0.6°C 77% 1.6 mph ESE2.6 kmh ESE 2.6 mph4.2 kmh 30.45 in1031.2 mb - 0.00 in0.0 mm 0.00 in0.0 mm
07:40 PM 37.3°F2.9°C 31.1°F-0.5°C 78% 2.0 mph ESE3.2 kmh ESE 2.6 mph4.2 kmh 30.45 in1031.2 mb - 0.00 in0.0 mm 0.00 in0.0 mm
07:50 PM 37.3°F2.9°C 31.1°F-0.5°C 78% 2.4 mph SE3.9 kmh SE 2.6 mph4.2 kmh 30.44 in1030.8 mb - 0.00 in0.0 mm 0.00 in0.0 mm
08:00 PM 37.3°F2.9°C 30.7°F-0.7°C 77% 1.9 mph E3.1 kmh E 2.6 mph4.2 kmh 30.44 in1030.8 mb - 0.00 in0.0 mm 0.00 in0.0 mm
08:10 PM 37.2°F2.9°C 31.3°F-0.4°C 79% 2.2 mph ESE3.5 kmh ESE 2.6 mph4.2 kmh 30.45 in1031.2 mb - 0.00 in0.0 mm 0.00 in0.0 mm
08:20 PM 37.2°F2.9°C 31.2°F-0.4°C 79% 2.8 mph E4.5 kmh E 3.9 mph6.3 kmh 30.44 in1030.8 mb - 0.00 in0.0 mm 0.00 in0.0 mm
08:30 PM 36.9°F2.7°C 31.9°F-0.1°C 82% 2.2 mph ENE3.5 kmh ENE 2.6 mph4.2 kmh 30.43 in1030.5 mb - 0.00 in0.0 mm 0.00 in0.0 mm
08:40 PM 36.5°F2.5°C 32.1°F0.1°C 84% 0.6 mph SSE1.0 kmh SSE 2.6 mph4.2 kmh 30.44 in1030.8 mb - 0.00 in0.0 mm 0.00 in0.0 mm
08:50 PM 36.4°F2.4°C 32.3°F0.2°C 85% 1.7 mph ESE2.7 kmh ESE 2.6 mph4.2 kmh 30.43 in1030.5 mb - 0.00 in0.0 mm 0.00 in0.0 mm
09:00 PM 36.3°F2.4°C 32.2°F0.1°C 85% 2.8 mph SE4.5 kmh SE 2.6 mph4.2 kmh 30.42 in1030.1 mb - 0.00 in0.0 mm 0.00 in0.0 mm
09:10 PM 36.3°F2.4°C 32.2°F0.1°C 85% 0.9 mph SE1.4 kmh SE 2.6 mph4.2 kmh 30.42 in1030.1 mb - 0.00 in0.0 mm 0.00 in0.0 mm
09:20 PM 36.3°F2.4°C 32.2°F0.1°C 85% Calm Calm -- 30.43 in1030.5 mb - 0.00 in0.0 mm 0.00 in0.0 mm
09:30 PM 36.3°F2.4°C 32.2°F0.1°C 85% 0.8 mph E1.3 kmh E 1.3 mph2.1 kmh 30.42 in1030.1 mb - 0.00 in0.0 mm 0.00 in0.0 mm
09:40 PM 36.3°F2.4°C 32.2°F0.1°C 85% 2.1 mph E3.4 kmh E 2.6 mph4.2 kmh 30.42 in1030.1 mb - 0.00 in0.0 mm 0.00 in0.0 mm
09:50 PM 36.3°F2.4°C 32.2°F0.1°C 85% 2.3 mph E3.7 kmh E 2.6 mph4.2 kmh 30.41 in1029.8 mb - 0.00 in0.0 mm 0.00 in0.0 mm
10:00 PM 36.2°F2.3°C 32.1°F0.1°C 85% 1.4 mph E2.3 kmh E 2.6 mph4.2 kmh 30.41 in1029.8 mb - 0.00 in0.0 mm 0.00 in0.0 mm
10:10 PM 36.2°F2.3°C 32.1°F0.1°C 85% Calm Calm -- 30.41 in1029.8 mb - 0.00 in0.0 mm 0.00 in0.0 mm
10:20 PM 36.2°F2.3°C 32.4°F0.2°C 86% 1.5 mph NE2.4 kmh NE 2.6 mph4.2 kmh 30.41 in1029.8 mb - 0.00 in0.0 mm 0.00 in0.0 mm
10:30 PM 36.2°F2.3°C 32.4°F0.2°C 86% 2.2 mph E3.5 kmh E 3.9 mph6.3 kmh 30.40 in1029.5 mb - 0.00 in0.0 mm 0.00 in0.0 mm
10:40 PM 36.3°F2.4°C 32.5°F0.3°C 86% Calm Calm -- 30.40 in1029.5 mb - 0.00 in0.0 mm 0.00 in0.0 mm
10:50 PM 36.2°F2.3°C 32.7°F0.4°C 87% Calm Calm -- 30.41 in1029.8 mb - 0.00 in0.0 mm 0.00 in0.0 mm
11:00 PM 36.2°F2.3°C 33.0°F0.6°C 88% Calm Calm -- 30.41 in1029.8 mb - 0.00 in0.0 mm 0.00 in0.0 mm
11:10 PM 36.1°F2.3°C 33.2°F0.7°C 89% 1.5 mph E2.4 kmh E 2.6 mph4.2 kmh 30.40 in1029.5 mb - 0.00 in0.0 mm 0.00 in0.0 mm
11:20 PM 36.1°F2.3°C 32.9°F0.5°C 88% 1.3 mph E2.1 kmh E 2.6 mph4.2 kmh 30.40 in1029.5 mb - 0.00 in0.0 mm 0.00 in0.0 mm
11:30 PM 36.1°F2.3°C 32.9°F0.5°C 88% 0.6 mph E1.0 kmh E 2.6 mph4.2 kmh 30.40 in1029.5 mb - 0.00 in0.0 mm 0.00 in0.0 mm
11:40 PM 35.9°F2.2°C 32.7°F0.4°C 88% Calm Calm -- 30.39 in1029.1 mb - 0.00 in0.0 mm 0.00 in0.0 mm
11:50 PM 35.9°F2.2°C 33.0°F0.6°C 89% 0.2 mph SE0.3 kmh SE -- 30.39 in1029.1 mb - 0.00 in0.0 mm 0.00 in0.0 mm